Time;durP1;ratioP1;P1;durP2;ratioP2;P2;SDS_P1;SDS_P2;PMS_P1;PMS_P2;Temp;Humidity;BMP_temperature;BMP_pressure;BME280_temperature;BME280_humidity;BME280_pressure;Samples;Min_cycle;Max_cycle;Signal;HPM_P1;HPM_P2
2022/07/21 00:01:48;;;;;;;4.28;3.30;;;21.30;99.90;;;;;;5000865;28;20567;-37
2022/07/21 00:04:15;;;;;;;4.28;3.10;;;20.50;99.90;;;;;;5002966;28;20148;-39
2022/07/21 00:06:41;;;;;;;3.67;3.03;;;20.40;99.90;;;;;;5001296;28;20562;-36
2022/07/21 00:09:07;;;;;;;4.50;2.63;;;20.50;99.90;;;;;;5001707;28;20165;-38
2022/07/21 00:11:33;;;;;;;5.20;3.08;;;20.60;99.90;;;;;;4999740;28;21004;-39
2022/07/21 00:13:58;;;;;;;6.10;3.05;;;20.60;99.90;;;;;;5000295;28;20033;-39
2022/07/21 00:16:24;;;;;;;3.92;3.00;;;20.60;99.90;;;;;;5001259;28;20066;-38
2022/07/21 00:18:50;;;;;;;6.75;3.30;;;20.80;99.90;;;;;;5002576;28;20041;-37
2022/07/21 00:21:15;;;;;;;4.70;2.92;;;21.00;99.90;;;;;;4998586;28;20108;-39
2022/07/21 00:23:41;;;;;;;5.10;3.15;;;21.10;99.90;;;;;;5001868;28;20751;-36
2022/07/21 00:26:07;;;;;;;5.30;3.00;;;21.10;99.90;;;;;;5000119;28;20061;-37
2022/07/21 00:28:32;;;;;;;4.57;3.30;;;21.10;99.90;;;;;;5000829;28;20034;-39
2022/07/21 00:30:58;;;;;;;3.75;3.38;;;21.10;99.90;;;;;;4999683;28;20030;-39
2022/07/21 00:33:23;;;;;;;5.38;3.80;;;21.10;99.90;;;;;;5000226;28;20451;-39
2022/07/21 00:35:49;;;;;;;5.65;3.75;;;21.20;99.90;;;;;;5000874;28;20029;-38
2022/07/21 00:38:15;;;;;;;6.03;3.67;;;21.30;99.90;;;;;;4999119;28;20049;-37
2022/07/21 00:40:40;;;;;;;5.32;3.47;;;21.20;99.90;;;;;;5001783;28;20420;-39
2022/07/21 00:43:06;;;;;;;6.18;3.70;;;21.30;99.90;;;;;;5001039;28;20056;-37
2022/07/21 00:45:32;;;;;;;5.55;3.50;;;21.30;99.90;;;;;;5000776;28;20041;-39
2022/07/21 00:47:57;;;;;;;4.88;3.85;;;21.30;99.90;;;;;;4999342;28;20510;-39
2022/07/21 00:50:23;;;;;;;3.83;3.22;;;21.30;99.90;;;;;;4999214;28;20120;-39
2022/07/21 00:52:49;;;;;;;5.25;4.22;;;21.20;99.90;;;;;;5000973;28;20065;-37
2022/07/21 00:55:19;;;;;;;3.70;3.25;;;21.20;99.90;;;;;;5000905;28;20103;-39
2022/07/21 00:57:45;;;;;;;4.82;3.50;;;21.30;99.90;;;;;;4998745;28;20038;-38
2022/07/21 01:00:21;;;;;;;4.00;3.45;;;21.30;99.90;;;;;;4999914;28;20049;-38
2022/07/21 01:02:46;;;;;;;6.82;3.40;;;21.30;99.90;;;;;;5000857;28;20034;-36
2022/07/21 01:05:14;;;;;;;3.40;3.10;;;21.20;99.90;;;;;;5000499;28;20382;-37
2022/07/21 01:07:45;;;;;;;5.60;3.53;;;21.20;99.90;;;;;;5000477;28;21020;-39
2022/07/21 01:10:12;;;;;;;5.03;3.33;;;21.20;99.90;;;;;;4999564;28;20108;-38
2022/07/21 01:12:39;;;;;;;4.87;3.83;;;21.30;99.90;;;;;;5000020;28;20128;-39
2022/07/21 01:15:06;;;;;;;4.03;3.63;;;21.10;99.90;;;;;;5000219;28;20030;-39
2022/07/21 01:17:33;;;;;;;5.20;4.07;;;21.10;99.90;;;;;;4999917;28;20044;-36
2022/07/21 01:20:05;;;;;;;6.03;3.50;;;21.10;99.90;;;;;;4998010;28;20044;-38
2022/07/21 01:22:32;;;;;;;5.05;3.72;;;21.20;99.90;;;;;;4998567;28;20569;-39
2022/07/21 01:24:58;;;;;;;4.97;3.75;;;21.20;99.90;;;;;;5000849;28;20169;-39
2022/07/21 01:27:26;;;;;;;5.20;3.70;;;21.20;99.90;;;;;;4998145;28;20034;-37
2022/07/21 01:29:51;;;;;;;5.28;3.70;;;21.20;99.90;;;;;;4998668;28;20080;-38
2022/07/21 01:32:17;;;;;;;5.13;4.10;;;21.20;99.90;;;;;;5000854;28;20078;-39
2022/07/21 01:34:43;;;;;;;4.88;3.97;;;21.20;99.90;;;;;;5000848;28;20063;-38
2022/07/21 01:37:08;;;;;;;4.78;3.63;;;21.20;99.90;;;;;;5002415;28;20022;-35
2022/07/21 01:42:18;;;;;;;5.32;4.07;;;21.30;99.90;;;;;;5001858;28;20045;-39
2022/07/21 01:44:44;;;;;;;4.60;3.60;;;21.20;99.90;;;;;;5013308;28;20038;-39
2022/07/21 01:47:09;;;;;;;4.30;3.90;;;21.20;99.90;;;;;;4999821;28;20022;-36
2022/07/21 01:49:35;;;;;;;4.82;3.75;;;21.10;99.90;;;;;;4998417;28;20026;-39
2022/07/21 01:52:00;;;;;;;5.10;3.85;;;21.10;99.90;;;;;;5000546;28;20041;-38
2022/07/21 01:54:26;;;;;;;6.68;4.40;;;21.00;99.90;;;;;;5000587;28;20479;-38
2022/07/21 01:56:52;;;;;;;5.13;3.92;;;20.80;99.90;;;;;;4999492;28;20058;-39
2022/07/21 01:59:18;;;;;;;6.28;4.53;;;20.70;99.90;;;;;;5000946;28;20038;-38
2022/07/21 02:01:44;;;;;;;6.97;4.88;;;20.70;99.90;;;;;;5000025;28;20172;-37
2022/07/21 02:04:10;;;;;;;6.32;4.65;;;20.60;99.90;;;;;;4998175;28;20122;-39
2022/07/21 02:06:35;;;;;;;8.10;5.13;;;20.60;99.90;;;;;;5004193;28;20471;-39
2022/07/21 02:09:01;;;;;;;5.10;4.38;;;20.70;99.90;;;;;;4999087;28;20495;-36
2022/07/21 02:11:27;;;;;;;7.18;5.28;;;20.60;99.90;;;;;;4998914;28;20083;-37
2022/07/21 02:13:53;;;;;;;7.75;5.05;;;20.60;99.90;;;;;;4999384;28;20034;-39
2022/07/21 02:16:19;;;;;;;5.75;4.72;;;20.60;99.90;;;;;;4999588;28;20062;-39
2022/07/21 02:18:45;;;;;;;7.63;4.80;;;20.60;99.90;;;;;;4999808;28;20033;-39
2022/07/21 02:21:11;;;;;;;6.85;5.65;;;20.70;99.90;;;;;;4997171;28;20314;-36
2022/07/21 02:23:36;;;;;;;6.07;4.90;;;20.70;99.90;;;;;;4999646;28;20033;-39
2022/07/21 02:26:02;;;;;;;7.35;5.60;;;20.70;99.90;;;;;;4998969;28;20125;-39
2022/07/21 02:28:28;;;;;;;9.02;5.97;;;20.70;99.90;;;;;;5002427;28;20040;-39
2022/07/21 02:30:54;;;;;;;6.65;5.78;;;20.70;99.90;;;;;;4999047;28;20042;-39
2022/07/21 02:33:21;;;;;;;7.95;5.85;;;20.50;99.90;;;;;;5000760;28;20029;-37
2022/07/21 02:35:47;;;;;;;11.45;6.40;;;20.40;99.90;;;;;;5002768;28;20026;-36
2022/07/21 02:38:13;;;;;;;8.50;6.80;;;20.40;99.90;;;;;;5003088;28;20075;-39
2022/07/21 02:40:39;;;;;;;7.30;6.00;;;20.40;99.90;;;;;;5001188;28;21001;-38
2022/07/21 02:43:05;;;;;;;9.32;6.68;;;20.50;99.90;;;;;;5003428;28;20423;-36
2022/07/21 02:45:31;;;;;;;10.45;6.93;;;20.50;99.90;;;;;;5002007;28;20381;-39
2022/07/21 02:48:03;;;;;;;9.85;7.38;;;20.50;99.90;;;;;;4999256;28;20556;-39
2022/07/21 02:50:32;;;;;;;10.43;7.57;;;20.40;99.90;;;;;;5002851;28;22284;-37
2022/07/21 02:53:01;;;;;;;9.27;6.72;;;20.50;99.90;;;;;;5001718;28;20514;-37
2022/07/21 02:55:28;;;;;;;9.32;6.93;;;20.50;99.90;;;;;;5003429;28;20109;-38
2022/07/21 02:58:10;;;;;;;10.13;7.55;;;20.50;99.90;;;;;;5001192;28;20034;-39
2022/07/21 03:00:40;;;;;;;10.60;8.05;;;20.50;99.90;;;;;;5002358;28;20501;-36
2022/07/21 03:03:06;;;;;;;9.55;7.55;;;20.50;99.90;;;;;;5000951;28;20724;-37
2022/07/21 03:05:33;;;;;;;12.25;8.32;;;20.50;99.90;;;;;;5003695;28;21573;-38
2022/07/21 03:07:59;;;;;;;10.68;8.52;;;20.60;99.90;;;;;;5001600;28;20045;-40
2022/07/21 03:10:25;;;;;;;12.82;8.43;;;20.50;99.90;;;;;;5001995;28;20026;-36
2022/07/21 03:12:51;;;;;;;11.73;7.97;;;20.50;99.90;;;;;;5002142;28;20038;-38
2022/07/21 03:15:16;;;;;;;11.65;9.20;;;20.40;99.90;;;;;;5002631;28;20034;-40
2022/07/21 03:17:42;;;;;;;12.05;8.75;;;20.30;99.90;;;;;;5001226;28;20104;-37
2022/07/21 03:20:08;;;;;;;14.95;9.10;;;20.40;99.90;;;;;;4999868;28;20042;-40
2022/07/21 03:22:34;;;;;;;11.27;8.68;;;20.40;99.90;;;;;;5000332;28;20026;-39
2022/07/21 03:25:00;;;;;;;14.02;9.23;;;20.40;99.90;;;;;;5002426;28;20032;-38
2022/07/21 03:27:26;;;;;;;12.52;8.43;;;20.40;99.90;;;;;;5001627;28;20040;-38
2022/07/21 03:29:51;;;;;;;10.55;8.60;;;20.20;99.90;;;;;;5001858;28;20398;-38
2022/07/21 03:32:17;;;;;;;12.15;8.80;;;20.30;99.90;;;;;;5000001;28;20045;-39
2022/07/21 03:34:45;;;;;;;11.77;8.90;;;20.30;99.90;;;;;;5001510;28;20033;-36
2022/07/21 03:37:11;;;;;;;12.18;9.70;;;20.50;99.90;;;;;;5002332;28;20038;-39
2022/07/21 03:39:36;;;;;;;12.77;9.63;;;20.30;99.90;;;;;;5003271;28;20580;-39
2022/07/21 03:42:02;;;;;;;11.88;9.35;;;20.40;99.90;;;;;;5001846;28;20030;-39
2022/07/21 03:44:28;;;;;;;12.23;8.90;;;20.40;99.90;;;;;;5001002;28;20030;-39
2022/07/21 03:46:54;;;;;;;13.18;9.98;;;20.30;99.90;;;;;;5001084;28;20045;-38
2022/07/21 03:49:19;;;;;;;13.00;8.82;;;20.40;99.90;;;;;;5002675;28;20045;-39
2022/07/21 03:51:45;;;;;;;11.80;8.90;;;20.30;99.90;;;;;;5001723;28;20429;-37
2022/07/21 03:54:10;;;;;;;12.70;9.48;;;20.30;99.90;;;;;;5002509;28;21777;-38
2022/07/21 03:56:36;;;;;;;13.20;9.75;;;20.30;99.90;;;;;;5003011;28;20025;-39
2022/07/21 03:59:02;;;;;;;11.02;9.45;;;20.30;99.90;;;;;;5000927;28;20121;-36
2022/07/21 04:01:28;;;;;;;12.23;9.18;;;20.20;99.90;;;;;;4999546;28;20041;-37
2022/07/21 04:03:53;;;;;;;14.68;9.90;;;20.30;99.90;;;;;;4999321;28;20030;-39
2022/07/21 04:06:19;;;;;;;13.50;9.30;;;20.30;99.90;;;;;;5000241;28;20038;-38
2022/07/21 04:08:44;;;;;;;14.20;9.85;;;20.40;99.90;;;;;;5000300;28;20753;-36
2022/07/21 04:11:10;;;;;;;12.70;9.38;;;20.50;99.90;;;;;;4998611;28;20116;-39
2022/07/21 04:13:36;;;;;;;13.18;9.68;;;20.60;99.90;;;;;;5001160;28;21000;-39
2022/07/21 04:16:01;;;;;;;13.38;9.90;;;20.50;99.90;;;;;;5000567;28;20038;-39
2022/07/21 04:18:27;;;;;;;12.20;9.38;;;20.40;99.90;;;;;;5001004;28;20033;-38
2022/07/21 04:20:52;;;;;;;15.40;9.80;;;20.40;99.90;;;;;;5000022;28;20048;-39
2022/07/21 04:23:18;;;;;;;12.70;9.80;;;20.30;99.90;;;;;;5000219;28;20041;-35
2022/07/21 04:25:44;;;;;;;17.05;10.63;;;20.20;99.90;;;;;;5000186;28;20061;-37
2022/07/21 04:28:11;;;;;;;11.65;9.10;;;20.20;99.90;;;;;;4999313;28;20034;-39
2022/07/21 04:30:37;;;;;;;12.97;10.07;;;20.30;99.90;;;;;;4998744;28;20061;-39
2022/07/21 04:33:02;;;;;;;13.20;9.55;;;20.30;99.90;;;;;;4999499;28;20364;-39
2022/07/21 04:35:28;;;;;;;12.60;9.98;;;20.20;99.90;;;;;;5001488;28;20076;-39
2022/07/21 04:37:54;;;;;;;13.07;9.93;;;20.10;99.90;;;;;;5000778;28;20022;-38
2022/07/21 04:40:20;;;;;;;12.48;9.50;;;20.10;99.90;;;;;;5000452;28;20535;-39
2022/07/21 04:42:45;;;;;;;12.90;10.48;;;20.30;99.90;;;;;;5000450;28;20128;-37
2022/07/21 04:45:13;;;;;;;12.98;9.68;;;20.30;99.90;;;;;;5000804;28;20038;-38
2022/07/21 04:47:42;;;;;;;;;;;20.40;99.90;;;;;;4998162;28;20119;-39
2022/07/21 04:50:09;;;;;;;12.45;9.68;;;20.50;99.90;;;;;;5004107;28;19958;-37
2022/07/21 04:52:35;;;;;;;13.10;10.48;;;20.50;99.90;;;;;;5001286;28;20034;-39
2022/07/21 04:55:00;;;;;;;12.55;9.45;;;20.60;99.90;;;;;;5001608;28;20457;-37
2022/07/21 04:57:26;;;;;;;13.10;9.95;;;20.60;99.90;;;;;;4998254;28;20038;-38
2022/07/21 04:59:52;;;;;;;15.18;10.57;;;20.50;99.90;;;;;;5000475;28;20038;-39
2022/07/21 05:02:18;;;;;;;11.15;8.77;;;20.50;99.90;;;;;;4997747;28;20038;-37
2022/07/21 05:04:43;;;;;;;16.23;10.82;;;20.50;99.90;;;;;;4999940;28;20079;-39
2022/07/21 05:07:09;;;;;;;15.32;11.27;;;20.40;99.90;;;;;;4998296;28;20030;-39
2022/07/21 05:09:35;;;;;;;13.10;10.00;;;20.50;99.90;;;;;;5002000;28;20037;-39
2022/07/21 05:12:00;;;;;;;15.25;10.65;;;20.50;99.90;;;;;;4999534;28;20038;-36
2022/07/21 05:14:26;;;;;;;13.02;10.27;;;20.50;99.90;;;;;;5001461;28;20053;-39
2022/07/21 05:16:52;;;;;;;14.45;10.40;;;20.50;99.90;;;;;;5001318;28;20125;-39
2022/07/21 05:19:17;;;;;;;14.70;10.23;;;20.50;99.90;;;;;;4997049;28;20033;-39
2022/07/21 05:21:43;;;;;;;13.45;11.20;;;20.50;99.90;;;;;;4999630;28;20383;-39
2022/07/21 05:24:09;;;;;;;14.02;10.43;;;20.50;99.90;;;;;;4999502;28;20034;-36
2022/07/21 05:26:36;;;;;;;14.00;10.45;;;20.50;99.90;;;;;;5001330;28;20506;-39
2022/07/21 05:29:02;;;;;;;13.02;10.43;;;20.60;99.90;;;;;;4999841;28;20044;-39
2022/07/21 05:31:28;;;;;;;11.00;9.30;;;20.50;99.90;;;;;;5000655;28;20045;-39
2022/07/21 05:33:53;;;;;;;13.30;9.75;;;20.60;99.90;;;;;;4997488;28;20495;-37
2022/07/21 05:36:19;;;;;;;13.20;10.18;;;20.70;99.90;;;;;;4997327;28;20033;-39
2022/07/21 05:38:46;;;;;;;13.57;10.32;;;20.70;99.90;;;;;;5003348;28;20080;-39
2022/07/21 05:41:12;;;;;;;15.20;11.30;;;20.70;99.90;;;;;;4999939;28;20077;-39
2022/07/21 05:43:37;;;;;;;14.85;11.10;;;20.70;99.90;;;;;;5000797;28;21759;-39
2022/07/21 05:46:03;;;;;;;16.65;10.55;;;20.70;99.90;;;;;;5001559;28;20034;-36
2022/07/21 05:48:29;;;;;;;11.77;9.45;;;20.70;99.90;;;;;;4999632;28;20475;-39
2022/07/21 05:50:54;;;;;;;14.13;10.82;;;20.70;99.90;;;;;;5000759;28;20109;-39
2022/07/21 05:53:20;;;;;;;12.55;9.75;;;20.70;99.90;;;;;;5000382;28;20937;-38
2022/07/21 05:55:46;;;;;;;15.30;11.00;;;20.70;99.90;;;;;;5001401;28;20136;-38
2022/07/21 05:58:12;;;;;;;13.45;10.27;;;20.80;99.90;;;;;;5000093;28;20036;-38
2022/07/21 06:00:37;;;;;;;16.27;11.82;;;20.70;99.90;;;;;;5004100;28;20029;-38
2022/07/21 06:03:03;;;;;;;15.57;11.32;;;20.80;99.90;;;;;;5002074;28;20030;-36
2022/07/21 06:05:29;;;;;;;16.35;11.25;;;20.80;99.90;;;;;;4997530;28;20100;-37
2022/07/21 06:07:54;;;;;;;16.45;10.18;;;20.90;99.90;;;;;;4999854;28;21309;-37
2022/07/21 06:10:20;;;;;;;14.95;11.38;;;20.90;99.90;;;;;;4999851;28;20038;-39
2022/07/21 06:12:45;;;;;;;13.43;10.00;;;20.90;99.90;;;;;;5003076;28;20038;-37
2022/07/21 06:15:13;;;;;;;15.23;11.55;;;21.00;99.90;;;;;;5002082;28;20038;-39
2022/07/21 06:17:45;;;;;;;15.27;10.48;;;21.00;99.90;;;;;;5004857;28;20431;-39
2022/07/21 06:20:12;;;;;;;14.70;11.45;;;21.00;99.90;;;;;;5005495;28;20022;-39
2022/07/21 06:22:38;;;;;;;15.07;10.50;;;21.00;99.90;;;;;;5004583;28;20033;-38
2022/07/21 06:25:04;;;;;;;18.00;11.68;;;21.00;99.90;;;;;;5004798;28;20407;-37
2022/07/21 06:27:31;;;;;;;18.15;13.60;;;21.00;99.90;;;;;;5003030;28;20159;-39
2022/07/21 06:29:58;;;;;;;16.30;10.90;;;20.90;99.90;;;;;;5004897;28;20041;-38
2022/07/21 06:32:24;;;;;;;17.80;12.35;;;20.90;99.90;;;;;;5006531;28;20040;-39
2022/07/21 06:34:50;;;;;;;16.60;12.60;;;20.90;99.90;;;;;;5007062;28;20029;-38
2022/07/21 06:37:16;;;;;;;15.40;12.00;;;21.00;99.90;;;;;;5011704;28;20041;-39
2022/07/21 06:39:42;;;;;;;17.75;12.10;;;20.90;99.90;;;;;;5007181;28;20394;-37
2022/07/21 06:42:08;;;;;;;17.58;12.63;;;20.90;99.90;;;;;;5004039;28;20025;-39
2022/07/21 06:44:34;;;;;;;16.23;11.40;;;20.90;99.90;;;;;;5003965;28;20605;-38
2022/07/21 06:47:04;;;;;;;17.67;12.00;;;20.90;99.90;;;;;;5003357;28;20487;-39
2022/07/21 06:49:30;;;;;;;17.55;11.60;;;20.90;99.90;;;;;;5003355;28;20041;-39
2022/07/21 06:51:56;;;;;;;17.35;11.23;;;20.90;99.90;;;;;;5001364;28;20030;-39
2022/07/21 06:54:22;;;;;;;15.95;11.23;;;21.00;99.90;;;;;;5003300;28;20049;-39
2022/07/21 06:56:47;;;;;;;13.52;10.65;;;21.00;99.90;;;;;;5004944;28;20065;-38
2022/07/21 06:59:13;;;;;;;14.45;10.93;;;21.00;99.90;;;;;;5003925;28;20041;-38
2022/07/21 07:01:39;;;;;;;15.48;10.57;;;21.00;99.90;;;;;;5002431;28;20491;-39
2022/07/21 07:04:04;;;;;;;13.98;9.73;;;20.90;99.90;;;;;;5002635;28;20455;-36
2022/07/21 07:06:30;;;;;;;12.57;10.00;;;20.90;99.90;;;;;;5001380;28;20018;-36
2022/07/21 07:08:55;;;;;;;15.13;9.43;;;20.80;99.90;;;;;;5002889;28;20109;-40
2022/07/21 07:11:21;;;;;;;13.07;9.93;;;20.80;99.90;;;;;;5001754;28;20124;-39
2022/07/21 07:13:47;;;;;;;13.50;9.80;;;20.80;99.90;;;;;;5002261;28;20065;-39
2022/07/21 07:16:13;;;;;;;14.05;9.30;;;20.80;99.90;;;;;;5003520;28;20022;-36
2022/07/21 07:18:39;;;;;;;13.00;9.77;;;20.60;99.90;;;;;;5002286;28;20443;-38
2022/07/21 07:21:05;;;;;;;14.90;9.48;;;20.60;99.90;;;;;;5003411;28;20105;-38
2022/07/21 07:23:31;;;;;;;12.98;9.70;;;20.60;99.90;;;;;;5002213;28;20727;-38
2022/07/21 07:25:56;;;;;;;13.25;9.63;;;20.50;99.90;;;;;;5002910;28;20022;-39
2022/07/21 07:28:22;;;;;;;11.00;8.93;;;20.60;99.90;;;;;;5003765;28;20025;-39
2022/07/21 07:30:49;;;;;;;13.30;9.63;;;20.70;99.90;;;;;;5003327;28;20519;-35
2022/07/21 07:33:14;;;;;;;12.60;8.75;;;20.70;99.90;;;;;;5002865;28;20032;-39
2022/07/21 07:35:40;;;;;;;13.40;9.43;;;20.80;99.90;;;;;;5003257;28;20038;-39
2022/07/21 07:38:05;;;;;;;13.77;9.25;;;20.90;99.90;;;;;;5003539;28;20106;-37
2022/07/21 07:40:31;;;;;;;11.90;9.07;;;20.90;99.90;;;;;;5003169;28;20544;-38
2022/07/21 07:42:57;;;;;;;12.88;9.45;;;21.00;99.90;;;;;;5002985;28;20026;-39
2022/07/21 07:45:23;;;;;;;11.77;8.65;;;20.90;99.90;;;;;;5001195;28;20026;-39
2022/07/21 07:47:48;;;;;;;11.25;9.00;;;21.00;99.90;;;;;;5002979;28;20033;-39
2022/07/21 07:50:14;;;;;;;11.38;9.20;;;21.00;99.90;;;;;;5001184;28;20033;-39
2022/07/21 07:52:42;;;;;;;11.98;9.35;;;21.00;99.90;;;;;;5000817;28;20084;-38
2022/07/21 07:55:10;;;;;;;12.68;9.30;;;21.00;99.90;;;;;;5002152;28;20079;-39
2022/07/21 07:57:39;;;;;;;13.48;9.95;;;21.10;99.90;;;;;;5003442;28;20919;-38
2022/07/21 08:00:09;;;;;;;12.15;8.57;;;21.10;99.90;;;;;;5001242;28;20384;-39
2022/07/21 08:02:35;;;;;;;10.77;8.98;;;21.00;99.90;;;;;;5001183;28;20034;-36
2022/07/21 08:05:00;;;;;;;13.25;8.27;;;21.00;99.90;;;;;;5008153;28;20111;-39
2022/07/21 08:07:26;;;;;;;11.77;8.90;;;20.90;99.90;;;;;;5006469;28;20026;-38
2022/07/21 08:09:51;;;;;;;10.40;8.73;;;20.90;99.90;;;;;;5001683;28;20137;-38
2022/07/21 08:12:17;;;;;;;10.13;8.52;;;20.80;99.90;;;;;;5002706;28;20474;-38
2022/07/21 08:14:43;;;;;;;13.80;8.15;;;20.90;99.90;;;;;;5003284;28;20080;-38
2022/07/21 08:17:08;;;;;;;12.55;9.10;;;21.00;99.90;;;;;;5002494;28;20029;-38
2022/07/21 08:19:34;;;;;;;10.80;8.55;;;21.10;99.90;;;;;;5001584;28;20029;-39
2022/07/21 08:22:01;;;;;;;12.70;9.43;;;21.20;99.90;;;;;;5002263;28;20133;-38
2022/07/21 08:24:27;;;;;;;14.00;8.98;;;21.20;99.90;;;;;;5001198;28;20029;-37
2022/07/21 08:26:52;;;;;;;12.88;9.10;;;21.20;99.90;;;;;;4999647;28;20034;-39
2022/07/21 08:29:18;;;;;;;10.90;8.32;;;21.30;99.90;;;;;;5002991;28;20149;-39
2022/07/21 08:31:44;;;;;;;10.38;8.50;;;21.30;99.90;;;;;;4998014;28;21444;-38
2022/07/21 08:34:10;;;;;;;12.55;8.82;;;21.40;99.90;;;;;;5001767;28;20041;-37
2022/07/21 08:36:36;;;;;;;10.32;7.97;;;21.50;99.90;;;;;;5002234;28;20212;-39
2022/07/21 08:39:02;;;;;;;10.45;8.60;;;21.50;99.90;;;;;;4999565;28;20038;-38
2022/07/21 08:41:28;;;;;;;11.27;8.52;;;21.50;99.90;;;;;;5001852;28;20029;-39
2022/07/21 08:43:53;;;;;;;10.25;8.40;;;21.50;99.90;;;;;;5001835;28;20479;-36
2022/07/21 08:46:22;;;;;;;11.88;8.68;;;21.60;99.90;;;;;;5000964;28;20041;-39
2022/07/21 08:48:49;;;;;;;10.85;8.30;;;21.60;99.90;;;;;;5000851;28;20025;-37
2022/07/21 08:51:16;;;;;;;11.23;8.48;;;21.40;99.90;;;;;;5001994;28;20026;-37
2022/07/21 08:53:46;;;;;;;13.52;9.15;;;21.50;99.90;;;;;;5001226;28;20053;-39
2022/07/21 08:56:12;;;;;;;14.07;8.43;;;21.40;99.90;;;;;;5001590;28;20033;-37
2022/07/21 08:58:37;;;;;;;11.63;8.48;;;21.30;99.90;;;;;;5001921;28;20049;-39
2022/07/21 09:01:05;;;;;;;10.52;8.30;;;21.30;99.90;;;;;;5000940;28;20120;-39
2022/07/21 09:03:32;;;;;;;9.57;8.13;;;21.40;99.90;;;;;;5000405;28;20054;-38
2022/07/21 09:06:07;;;;;;;11.15;8.07;;;21.40;99.90;;;;;;5000978;28;20029;-39
2022/07/21 09:08:39;;;;;;;12.15;8.93;;;21.50;99.90;;;;;;5003560;28;20022;-39
2022/07/21 09:11:32;;;;;;;11.60;8.65;;;21.50;99.90;;;;;;5001797;28;20052;-36
2022/07/21 09:14:08;;;;;;;12.38;8.63;;;21.40;99.90;;;;;;4998997;28;20038;-39
2022/07/21 09:16:43;;;;;;;12.30;9.23;;;21.50;99.90;;;;;;5000146;28;20116;-36
2022/07/21 09:19:19;;;;;;;11.60;9.57;;;21.60;99.90;;;;;;4999774;28;20038;-37
2022/07/21 09:21:46;;;;;;;11.52;9.65;;;21.40;99.90;;;;;;5002001;28;20053;-39
2022/07/21 09:24:15;;;;;;;11.52;9.27;;;21.40;99.90;;;;;;4997904;28;20034;-38
2022/07/21 09:26:56;;;;;;;11.43;9.02;;;21.40;99.90;;;;;;4998876;28;20041;-39
2022/07/21 09:29:22;;;;;;;10.02;8.27;;;21.40;99.90;;;;;;5000491;28;20113;-39
2022/07/21 09:31:47;;;;;;;9.25;8.10;;;21.50;99.90;;;;;;5000539;28;20041;-39
2022/07/21 09:34:14;;;;;;;13.00;8.82;;;21.40;99.90;;;;;;5001247;28;20809;-38
2022/07/21 09:36:55;;;;;;;10.43;8.40;;;21.40;99.90;;;;;;4999725;28;20109;-38
2022/07/21 09:39:44;;;;;;;12.30;9.38;;;21.40;99.90;;;;;;4999530;28;20026;-39
2022/07/21 09:42:21;;;;;;;10.98;7.97;;;21.50;99.90;;;;;;5000752;28;20164;-38
2022/07/21 09:44:54;;;;;;;10.48;8.55;;;21.60;99.90;;;;;;5000380;28;20030;-38
2022/07/21 09:47:22;;;;;;;10.65;8.80;;;21.70;99.90;;;;;;4999100;28;20190;-39
2022/07/21 09:49:47;;;;;;;10.38;8.25;;;21.70;99.90;;;;;;5000759;28;20665;-36
2022/07/21 09:52:33;;;;;;;9.63;8.27;;;21.70;99.90;;;;;;5000847;28;20041;-36
2022/07/21 09:55:05;;;;;;;11.95;8.75;;;21.90;99.90;;;;;;4999750;28;20053;-39
2022/07/21 09:57:31;;;;;;;10.13;7.95;;;22.10;99.90;;;;;;5000781;28;20030;-38
2022/07/21 09:59:58;;;;;;;11.30;8.65;;;22.10;99.90;;;;;;5002214;28;20046;-39
2022/07/21 10:02:25;;;;;;;9.65;8.60;;;22.00;99.90;;;;;;5003719;28;20046;-39
2022/07/21 10:05:08;;;;;;;10.60;9.07;;;22.00;99.90;;;;;;5015674;28;20510;-39
2022/07/21 10:07:38;;;;;;;11.20;8.50;;;22.00;99.90;;;;;;5004241;28;20483;-38
2022/07/21 10:10:05;;;;;;;11.68;8.88;;;22.00;99.90;;;;;;5001316;28;20026;-38
2022/07/21 10:12:31;;;;;;;14.07;9.55;;;22.20;99.90;;;;;;4999277;28;20407;-39
2022/07/21 10:14:57;;;;;;;11.57;8.88;;;22.20;99.90;;;;;;4999856;28;20045;-36
2022/07/21 10:17:24;;;;;;;11.52;9.57;;;22.30;99.90;;;;;;5004904;28;20030;-39
2022/07/21 10:20:16;;;;;;;13.77;10.32;;;22.30;99.90;;;;;;5003658;28;20509;-39
2022/07/21 10:23:15;;;;;;;13.60;9.63;;;22.30;99.90;;;;;;5004108;28;20034;-39
2022/07/21 10:25:43;;;;;;;13.32;10.60;;;22.50;99.90;;;;;;5001499;28;21565;-39
2022/07/21 10:28:11;;;;;;;16.40;11.17;;;22.60;99.90;;;;;;5002123;28;20038;-39
2022/07/21 10:30:42;;;;;;;12.52;10.13;;;22.50;99.90;;;;;;5000191;28;20061;-39
2022/07/21 10:33:08;;;;;;;12.90;10.05;;;22.50;99.90;;;;;;4999198;28;20077;-38
2022/07/21 10:35:34;;;;;;;15.25;11.23;;;22.40;99.90;;;;;;5000791;28;20168;-38
2022/07/21 10:38:02;;;;;;;12.20;10.05;;;22.40;99.90;;;;;;5001697;28;20030;-39
2022/07/21 10:40:28;;;;;;;17.63;11.82;;;22.50;99.90;;;;;;5000659;28;20061;-39
2022/07/21 10:43:00;;;;;;;14.77;11.50;;;22.50;99.90;;;;;;5002646;28;20037;-39
2022/07/21 10:45:42;;;;;;;13.93;11.10;;;22.60;99.90;;;;;;5002987;28;20022;-38
2022/07/21 10:48:28;;;;;;;12.65;9.93;;;22.60;99.90;;;;;;5000004;28;20032;-38
2022/07/21 10:50:58;;;;;;;14.55;10.27;;;22.70;99.90;;;;;;5005710;28;20163;-39
2022/07/21 10:53:23;;;;;;;12.48;9.38;;;23.10;99.90;;;;;;5001204;28;20068;-39
2022/07/21 10:55:52;;;;;;;12.48;9.55;;;23.30;99.90;;;;;;5002673;28;20038;-38
2022/07/21 10:58:46;;;;;;;11.45;9.20;;;23.40;99.90;;;;;;5002575;28;20021;-39
2022/07/21 11:01:15;;;;;;;11.98;9.70;;;23.40;99.90;;;;;;4991365;28;20064;-37
2022/07/21 11:03:43;;;;;;;11.60;8.93;;;23.60;99.90;;;;;;5002319;28;20037;-40
2022/07/21 11:06:16;;;;;;;10.95;9.38;;;23.80;99.50;;;;;;5003476;28;20037;-39
2022/07/21 11:08:43;;;;;;;16.92;10.93;;;23.90;97.80;;;;;;5004351;28;20029;-36
2022/07/21 11:11:17;;;;;;;11.13;9.27;;;24.10;99.90;;;;;;5003920;28;20037;-38
2022/07/21 11:14:08;;;;;;;11.98;8.45;;;24.10;98.30;;;;;;5005125;28;20108;-39
2022/07/21 11:16:40;;;;;;;12.70;8.98;;;24.40;96.80;;;;;;5005004;28;20273;-37
2022/07/21 11:19:26;;;;;;;13.23;9.02;;;24.60;96.20;;;;;;5003439;28;20042;-39
2022/07/21 11:21:51;;;;;;;11.48;9.60;;;24.80;95.50;;;;;;5003554;28;20029;-39
2022/07/21 11:24:21;;;;;;;10.45;8.40;;;24.80;95.90;;;;;;5004858;28;20029;-37
2022/07/21 11:26:57;;;;;;;11.20;9.00;;;24.50;95.40;;;;;;5003615;28;20088;-40
2022/07/21 11:29:23;;;;;;;10.48;9.15;;;24.70;96.10;;;;;;5002394;28;20475;-39
2022/07/21 11:31:50;;;;;;;12.73;9.35;;;24.80;96.10;;;;;;5003018;28;20158;-38
2022/07/21 11:34:15;;;;;;;9.25;8.35;;;24.60;97.50;;;;;;5003947;28;20059;-39
2022/07/21 11:36:41;;;;;;;11.00;8.93;;;24.50;98.00;;;;;;5002889;28;20041;-39
2022/07/21 11:39:12;;;;;;;12.48;10.25;;;24.30;98.10;;;;;;5002059;28;20091;-39
2022/07/21 11:41:40;;;;;;;9.93;8.65;;;24.40;97.60;;;;;;5003350;28;20030;-39
2022/07/21 11:44:08;;;;;;;10.95;9.50;;;24.20;98.50;;;;;;5003560;28;20175;-38
2022/07/21 11:46:46;;;;;;;11.98;9.20;;;24.10;99.90;;;;;;5003379;28;20075;-37
2022/07/21 11:49:12;;;;;;;11.48;9.43;;;23.90;99.90;;;;;;5003437;28;21707;-39
2022/07/21 11:51:45;;;;;;;10.25;9.18;;;24.10;99.90;;;;;;5003310;28;20044;-39
2022/07/21 11:54:22;;;;;;;10.88;9.30;;;24.10;99.90;;;;;;5002272;28;20061;-39
2022/07/21 11:56:50;;;;;;;11.50;7.78;;;24.20;99.90;;;;;;5003764;28;20044;-36
2022/07/21 11:59:15;;;;;;;11.85;8.38;;;24.20;99.10;;;;;;5003402;28;20542;-38
2022/07/21 12:02:02;;;;;;;9.88;8.25;;;24.30;94.70;;;;;;5001640;28;20033;-38
2022/07/21 12:04:39;;;;;;;10.80;8.38;;;24.00;96.80;;;;;;5004662;28;20029;-36
2022/07/21 12:07:23;;;;;;;11.98;8.82;;;23.90;95.00;;;;;;5000374;28;20018;-37
2022/07/21 12:09:55;;;;;;;9.77;8.27;;;24.10;95.60;;;;;;5001606;28;20038;-40
2022/07/21 12:12:43;;;;;;;13.70;9.85;;;24.10;96.60;;;;;;5002322;28;20924;-38
2022/07/21 12:15:19;;;;;;;10.32;8.13;;;24.10;95.20;;;;;;5002392;28;20029;-39
2022/07/21 12:17:51;;;;;;;12.02;8.52;;;24.30;97.00;;;;;;5002043;28;20029;-38
2022/07/21 12:20:32;;;;;;;9.55;8.05;;;24.40;95.70;;;;;;5000693;28;20073;-37
2022/07/21 12:23:03;;;;;;;10.70;8.05;;;24.50;95.30;;;;;;5000876;28;20026;-40
2022/07/21 12:25:35;;;;;;;10.05;8.18;;;24.50;93.90;;;;;;5002095;28;20029;-37
2022/07/21 12:28:02;;;;;;;11.48;8.30;;;24.50;93.60;;;;;;5003154;28;20053;-36
2022/07/21 12:31:00;;;;;;;10.63;8.68;;;24.60;94.30;;;;;;5001775;28;20567;-39
2022/07/21 12:33:29;;;;;;;9.23;8.27;;;24.60;94.30;;;;;;4998700;28;20511;-39
2022/07/21 12:36:03;;;;;;;10.10;8.27;;;24.70;93.40;;;;;;5002247;28;20097;-39
2022/07/21 12:38:45;;;;;;;10.27;8.35;;;24.60;94.30;;;;;;5002389;28;20052;-37
2022/07/21 12:41:13;;;;;;;11.20;8.57;;;24.70;95.60;;;;;;5012406;28;20030;-37
2022/07/21 12:43:39;;;;;;;9.88;8.07;;;24.70;93.60;;;;;;5001654;28;20030;-40
2022/07/21 12:46:17;;;;;;;10.52;8.23;;;24.90;94.70;;;;;;5000938;28;20048;-39